Time;durP1;ratioP1;P1;durP2;ratioP2;P2;SDS_P1;SDS_P2;PMS_P1;PMS_P2;Temp;Humidity;BMP_temperature;BMP_pressure;BME280_temperature;BME280_humidity;BME280_pressure;Samples;Min_cycle;Max_cycle;Signal;HPM_P1;HPM_P2
2023/05/06 00:02:01;;;;;;;5.23;4.73;;;16.10;99.90;;;;;;5032363;28;20179;-75
2023/05/06 00:04:27;;;;;;;6.77;5.93;;;16.00;99.90;;;;;;5032173;28;20198;-75
2023/05/06 00:06:53;;;;;;;7.47;6.07;;;16.00;99.90;;;;;;5032426;28;20195;-75
2023/05/06 00:09:19;;;;;;;8.80;6.17;;;16.00;99.90;;;;;;5015981;28;20195;-75
2023/05/06 00:11:46;;;;;;;6.40;5.60;;;16.00;99.90;;;;;;5012476;28;20175;-75
2023/05/06 00:14:12;;;;;;;5.40;4.73;;;16.00;99.90;;;;;;5012416;28;20181;-75
2023/05/06 00:16:38;;;;;;;7.00;5.30;;;16.00;99.90;;;;;;5025876;28;20178;-75
2023/05/06 00:19:03;;;;;;;8.37;5.60;;;16.00;99.90;;;;;;5026593;28;20546;-75
2023/05/06 00:21:29;;;;;;;6.27;5.40;;;16.00;99.90;;;;;;5013020;28;20176;-75
2023/05/06 00:23:55;;;;;;;6.37;4.90;;;16.00;99.90;;;;;;5010997;28;20176;-75
2023/05/06 00:26:21;;;;;;;6.27;5.07;;;16.00;99.90;;;;;;5017042;28;20225;-75
2023/05/06 00:28:47;;;;;;;5.10;4.60;;;16.10;99.90;;;;;;5013420;28;20619;-75
2023/05/06 00:31:13;;;;;;;6.60;5.00;;;16.10;99.90;;;;;;5016787;28;20190;-75
2023/05/06 00:33:39;;;;;;;5.07;4.57;;;16.10;99.90;;;;;;5014999;28;20175;-75
2023/05/06 00:36:05;;;;;;;6.77;5.00;;;16.00;99.90;;;;;;5018569;28;20183;-75
2023/05/06 00:38:30;;;;;;;6.00;5.40;;;16.00;99.90;;;;;;5010185;28;20253;-75
2023/05/06 00:40:56;;;;;;;6.77;5.00;;;16.10;99.90;;;;;;5013102;28;20600;-75
2023/05/06 00:43:22;;;;;;;9.57;5.57;;;16.10;99.90;;;;;;5030660;28;20348;-75
2023/05/06 00:45:48;;;;;;;6.37;4.90;;;16.10;99.90;;;;;;5017765;28;20234;-75
2023/05/06 00:48:15;;;;;;;6.60;5.00;;;16.10;99.90;;;;;;5025463;28;20254;-75
2023/05/06 00:50:41;;;;;;;5.80;4.63;;;16.00;99.90;;;;;;5017686;28;20257;-75
2023/05/06 00:53:09;;;;;;;6.27;5.00;;;16.00;99.90;;;;;;5024086;28;20734;-75
2023/05/06 00:55:35;;;;;;;5.20;4.70;;;16.10;99.90;;;;;;4980463;28;1041239;-75
2023/05/06 00:58:02;;;;;;;5.50;4.70;;;16.10;99.90;;;;;;5013561;28;20265;-75
2023/05/06 01:00:27;;;;;;;5.73;4.63;;;16.00;99.90;;;;;;5020326;28;20179;-75
2023/05/06 01:02:53;;;;;;;6.00;4.27;;;16.00;99.90;;;;;;5011251;28;20257;-75
2023/05/06 01:05:28;;;;;;;5.40;4.60;;;16.00;99.90;;;;;;5012396;28;20678;-75
2023/05/06 01:08:05;;;;;;;5.63;4.93;;;16.00;99.90;;;;;;5025463;28;20207;-75
2023/05/06 01:10:52;;;;;;;6.73;4.90;;;16.00;99.90;;;;;;5011452;28;20558;-75
2023/05/06 01:13:34;;;;;;;7.37;5.50;;;15.90;99.90;;;;;;5022420;28;20186;-75
2023/05/06 01:16:02;;;;;;;5.13;4.70;;;15.90;99.90;;;;;;5018210;28;20587;-75
2023/05/06 01:18:31;;;;;;;6.53;5.30;;;15.80;99.90;;;;;;4994865;28;20214;-75
2023/05/06 01:20:58;;;;;;;5.40;4.47;;;15.80;99.90;;;;;;5024922;28;20235;-75
2023/05/06 01:23:26;;;;;;;5.00;4.50;;;15.70;99.90;;;;;;5019748;28;20654;-74
2023/05/06 01:25:51;;;;;;;5.37;4.80;;;15.70;99.90;;;;;;5011913;28;20224;-75
2023/05/06 01:28:17;;;;;;;6.67;4.73;;;15.70;99.90;;;;;;5012149;28;20200;-75
2023/05/06 01:30:59;;;;;;;5.80;5.17;;;15.70;99.90;;;;;;5010852;28;20270;-75
2023/05/06 01:33:28;;;;;;;5.73;5.10;;;15.60;99.90;;;;;;5013091;28;20175;-75
2023/05/06 01:36:11;;;;;;;5.70;4.70;;;15.60;99.90;;;;;;5019494;28;20333;-75
2023/05/06 01:38:50;;;;;;;5.77;4.73;;;15.60;99.90;;;;;;5025540;28;20254;-75
2023/05/06 01:41:16;;;;;;;7.60;5.70;;;15.60;99.90;;;;;;5024604;28;20281;-75
2023/05/06 01:43:46;;;;;;;9.77;5.60;;;15.50;99.90;;;;;;5016918;28;20535;-75
2023/05/06 01:46:18;;;;;;;7.57;5.10;;;15.40;99.90;;;;;;5010670;28;20241;-75
2023/05/06 01:48:48;;;;;;;5.53;4.60;;;15.40;99.90;;;;;;5010834;28;20283;-75
2023/05/06 01:51:15;;;;;;;5.03;4.53;;;15.30;99.90;;;;;;5012155;28;20168;-75
2023/05/06 01:53:40;;;;;;;5.90;5.30;;;15.30;99.90;;;;;;5010809;28;20709;-75
2023/05/06 01:56:06;;;;;;;8.77;5.57;;;15.20;99.90;;;;;;5012134;28;20259;-75
2023/05/06 01:58:32;;;;;;;6.27;5.23;;;15.20;99.90;;;;;;5013406;28;20199;-75
2023/05/06 02:00:58;;;;;;;7.03;4.90;;;15.20;99.90;;;;;;5017767;28;20265;-75
2023/05/06 02:03:23;;;;;;;5.70;5.10;;;15.10;99.90;;;;;;5020603;28;20187;-75
2023/05/06 02:05:49;;;;;;;5.30;4.73;;;15.10;99.90;;;;;;5025880;28;20206;-75
2023/05/06 02:08:15;;;;;;;5.73;4.90;;;15.00;99.90;;;;;;5016386;28;20210;-75
2023/05/06 02:10:44;;;;;;;5.60;5.10;;;15.10;99.90;;;;;;5024487;28;20250;-75
2023/05/06 02:13:10;;;;;;;5.47;4.97;;;15.00;99.90;;;;;;5024340;28;20182;-75
2023/05/06 02:15:36;;;;;;;5.30;4.67;;;14.90;99.90;;;;;;4996173;28;20194;-74
2023/05/06 02:18:02;;;;;;;6.73;5.30;;;14.80;99.90;;;;;;5029770;28;20228;-75
2023/05/06 02:20:27;;;;;;;5.37;4.87;;;14.70;99.90;;;;;;5023858;28;20604;-75
2023/05/06 02:22:53;;;;;;;5.77;4.60;;;14.70;99.90;;;;;;5009991;28;20266;-75
2023/05/06 02:25:20;;;;;;;5.00;4.50;;;14.60;99.90;;;;;;4993996;28;20234;-75
2023/05/06 02:27:45;;;;;;;5.57;4.50;;;14.60;99.90;;;;;;5011361;28;20199;-75
2023/05/06 02:30:11;;;;;;;7.03;5.20;;;14.50;99.90;;;;;;5016709;28;20182;-75
2023/05/06 02:32:37;;;;;;;5.63;5.00;;;14.60;99.90;;;;;;5020376;28;20726;-75
2023/05/06 02:35:03;;;;;;;6.00;5.13;;;14.60;99.90;;;;;;5011347;28;20182;-75
2023/05/06 02:37:29;;;;;;;5.77;4.97;;;14.70;99.90;;;;;;5010365;28;20207;-75
2023/05/06 02:39:54;;;;;;;6.57;5.37;;;14.50;99.90;;;;;;5020226;28;20648;-75
2023/05/06 02:42:21;;;;;;;7.17;5.27;;;14.40;99.90;;;;;;5031626;28;20176;-74
2023/05/06 02:44:47;;;;;;;5.17;4.60;;;14.40;99.90;;;;;;5028873;28;20206;-74
2023/05/06 02:47:12;;;;;;;6.47;5.00;;;14.30;99.90;;;;;;5024109;28;20621;-74
2023/05/06 02:49:38;;;;;;;5.20;4.70;;;14.30;99.90;;;;;;5022691;28;20186;-74
2023/05/06 02:52:04;;;;;;;6.33;5.73;;;14.20;99.90;;;;;;5011152;28;20225;-74
2023/05/06 02:54:29;;;;;;;6.37;4.80;;;14.30;99.90;;;;;;5011246;28;20210;-74
2023/05/06 02:56:55;;;;;;;5.43;4.80;;;14.30;99.90;;;;;;5009811;28;20199;-75
2023/05/06 02:59:22;;;;;;;7.50;5.07;;;14.40;99.90;;;;;;5011101;28;20191;-75
2023/05/06 03:01:47;;;;;;;8.83;6.00;;;14.30;99.90;;;;;;5011335;28;20207;-74
2023/05/06 03:04:13;;;;;;;6.23;5.63;;;14.20;99.90;;;;;;5009239;28;20697;-75
2023/05/06 03:06:39;;;;;;;5.73;4.93;;;14.20;99.90;;;;;;5011133;28;20206;-74
2023/05/06 03:09:05;;;;;;;5.67;4.80;;;14.20;99.90;;;;;;5009644;28;20197;-74
2023/05/06 03:11:32;;;;;;;6.60;5.37;;;14.20;99.90;;;;;;5013881;28;20635;-75
2023/05/06 03:14:01;;;;;;;5.60;4.60;;;14.20;99.90;;;;;;5029060;28;20639;-75
2023/05/06 03:16:27;;;;;;;5.20;4.63;;;14.20;99.90;;;;;;5025557;28;20179;-75
2023/05/06 03:18:56;;;;;;;5.37;4.87;;;14.20;99.90;;;;;;5012433;28;20187;-75
2023/05/06 03:21:22;;;;;;;5.27;4.77;;;14.20;99.90;;;;;;5009608;28;20559;-75
2023/05/06 03:23:49;;;;;;;6.60;5.03;;;14.20;99.90;;;;;;5029155;28;20639;-74
2023/05/06 03:26:16;;;;;;;5.47;4.97;;;14.20;99.90;;;;;;5017534;28;20210;-74
2023/05/06 03:28:43;;;;;;;5.37;4.87;;;14.20;99.90;;;;;;5011041;28;20196;-75
2023/05/06 03:31:10;;;;;;;8.53;4.80;;;14.20;99.90;;;;;;5029882;28;20215;-74
2023/05/06 03:33:35;;;;;;;6.90;5.40;;;14.00;99.90;;;;;;5015081;28;20237;-75
2023/05/06 03:36:03;;;;;;;7.80;5.70;;;13.90;99.90;;;;;;5019045;28;20193;-75
2023/05/06 03:38:29;;;;;;;6.20;4.80;;;14.00;99.90;;;;;;5029838;28;20551;-75
2023/05/06 03:41:00;;;;;;;5.40;4.57;;;13.90;99.90;;;;;;5013430;28;20182;-75
2023/05/06 03:43:26;;;;;;;6.60;4.80;;;13.90;99.90;;;;;;5018320;28;20190;-75
2023/05/06 03:45:56;;;;;;;6.93;5.17;;;13.90;99.90;;;;;;5014705;28;20230;-74
2023/05/06 03:48:23;;;;;;;5.13;4.57;;;13.90;99.90;;;;;;5020447;28;20568;-75
2023/05/06 03:50:49;;;;;;;4.83;4.23;;;13.90;99.90;;;;;;5028487;28;20166;-75
2023/05/06 03:53:16;;;;;;;5.27;4.60;;;13.90;99.90;;;;;;5030558;28;20258;-75
2023/05/06 03:55:44;;;;;;;7.57;4.63;;;13.80;99.90;;;;;;5017062;28;20194;-75
2023/05/06 03:58:11;;;;;;;6.77;4.87;;;13.80;99.90;;;;;;5026257;28;20203;-75
2023/05/06 04:00:38;;;;;;;5.83;4.60;;;13.80;99.90;;;;;;5003933;28;20183;-74
2023/05/06 04:03:03;;;;;;;6.27;3.80;;;13.80;99.90;;;;;;5033245;28;20181;-74
2023/05/06 04:05:37;;;;;;;4.33;3.83;;;13.70;99.90;;;;;;5022269;28;20289;-75
2023/05/06 04:08:04;;;;;;;5.00;3.77;;;13.60;99.90;;;;;;5032974;28;20661;-75
2023/05/06 04:10:30;;;;;;;3.90;3.60;;;13.60;99.90;;;;;;5026147;28;20273;-74
2023/05/06 04:13:02;;;;;;;5.93;3.53;;;13.50;99.90;;;;;;5024852;28;20697;-75
2023/05/06 04:15:35;;;;;;;3.90;3.20;;;13.50;99.90;;;;;;5019550;28;20179;-74
2023/05/06 04:18:06;;;;;;;3.30;3.00;;;13.50;99.90;;;;;;5021136;28;20202;-75
2023/05/06 04:20:32;;;;;;;3.83;3.53;;;13.40;99.90;;;;;;5011984;28;20187;-75
2023/05/06 04:22:58;;;;;;;5.47;3.57;;;13.40;99.90;;;;;;5018836;28;20178;-75
2023/05/06 04:25:24;;;;;;;4.60;4.07;;;13.40;99.90;;;;;;5018893;28;20640;-75
2023/05/06 04:27:50;;;;;;;4.70;4.13;;;13.30;99.90;;;;;;5017310;28;20235;-74
2023/05/06 04:30:16;;;;;;;5.73;4.43;;;13.30;99.90;;;;;;5012158;28;20187;-75
2023/05/06 04:32:42;;;;;;;6.10;4.97;;;13.40;99.90;;;;;;5012125;28;20180;-74
2023/05/06 04:35:08;;;;;;;6.20;5.10;;;13.50;99.90;;;;;;5013926;28;20171;-75
2023/05/06 04:37:35;;;;;;;5.30;4.50;;;13.60;99.90;;;;;;5012330;28;20250;-74
2023/05/06 04:40:08;;;;;;;5.23;4.77;;;13.60;99.90;;;;;;5013374;28;20173;-75
2023/05/06 04:42:36;;;;;;;5.87;5.23;;;13.60;99.90;;;;;;5011965;28;20612;-74
2023/05/06 04:45:10;;;;;;;4.20;3.80;;;13.50;99.90;;;;;;5011948;28;20214;-75
2023/05/06 04:47:37;;;;;;;3.80;3.40;;;13.50;99.90;;;;;;5012083;28;20222;-74
2023/05/06 04:50:04;;;;;;;4.60;4.20;;;13.50;99.90;;;;;;5011867;28;20186;-74
2023/05/06 04:52:30;;;;;;;6.03;5.00;;;13.50;99.90;;;;;;5012918;28;20210;-75
2023/05/06 04:54:56;;;;;;;5.20;4.70;;;13.50;99.90;;;;;;5019338;28;20243;-75
2023/05/06 04:57:22;;;;;;;3.97;3.60;;;13.60;99.90;;;;;;5015658;28;20564;-74
2023/05/06 04:59:49;;;;;;;4.00;3.60;;;13.70;99.90;;;;;;5016206;28;20183;-75
2023/05/06 05:02:15;;;;;;;4.33;3.93;;;13.70;99.90;;;;;;5026596;28;20190;-74
2023/05/06 05:04:42;;;;;;;4.17;3.23;;;13.70;99.90;;;;;;5029339;28;20218;-74
2023/05/06 05:07:08;;;;;;;3.73;3.43;;;13.70;99.90;;;;;;5031467;28;21146;-75
2023/05/06 05:09:34;;;;;;;4.40;4.00;;;13.80;99.90;;;;;;5031078;28;20300;-75
2023/05/06 05:12:01;;;;;;;4.87;4.10;;;13.90;99.90;;;;;;5030524;28;20171;-74
2023/05/06 05:14:29;;;;;;;5.87;4.30;;;13.90;99.90;;;;;;5031455;28;20179;-75
2023/05/06 05:16:56;;;;;;;4.53;4.13;;;13.90;99.90;;;;;;5026579;28;20243;-75
2023/05/06 05:19:22;;;;;;;5.63;4.37;;;13.90;99.90;;;;;;5011190;28;20183;-75
2023/05/06 05:21:49;;;;;;;3.73;3.43;;;13.90;99.90;;;;;;5011619;28;20187;-75
2023/05/06 05:24:15;;;;;;;3.67;3.37;;;13.90;99.90;;;;;;5027886;28;20236;-75
2023/05/06 05:26:40;;;;;;;6.57;3.40;;;13.90;99.90;;;;;;5011387;28;20253;-75
2023/05/06 05:29:06;;;;;;;4.40;4.00;;;13.90;99.90;;;;;;5027931;28;20175;-74
2023/05/06 05:31:34;;;;;;;3.93;3.63;;;14.00;99.90;;;;;;5011223;28;20179;-74
2023/05/06 05:34:00;;;;;;;4.40;4.00;;;14.00;99.90;;;;;;5011541;28;20265;-74
2023/05/06 05:36:26;;;;;;;5.07;4.10;;;14.10;99.90;;;;;;5010817;28;20182;-74
2023/05/06 05:38:53;;;;;;;5.57;4.20;;;14.30;99.90;;;;;;5027936;28;20183;-75
2023/05/06 05:41:21;;;;;;;5.70;4.00;;;14.40;99.90;;;;;;5027655;28;20191;-75
2023/05/06 05:43:48;;;;;;;4.60;4.20;;;14.40;99.90;;;;;;5028640;28;20664;-73
2023/05/06 05:46:15;;;;;;;6.00;5.50;;;14.50;99.90;;;;;;5022380;28;20214;-74
2023/05/06 05:48:42;;;;;;;5.63;4.83;;;14.60;99.90;;;;;;5011125;28;20299;-74
2023/05/06 05:51:10;;;;;;;7.30;5.73;;;14.70;99.90;;;;;;5011541;28;20262;-73
2023/05/06 05:53:35;;;;;;;7.10;6.30;;;14.80;99.90;;;;;;5011358;28;20228;-74
2023/05/06 05:56:03;;;;;;;6.77;5.87;;;14.80;99.90;;;;;;5011289;28;20240;-74
2023/05/06 05:58:29;;;;;;;7.70;5.53;;;14.90;99.90;;;;;;5011132;28;20332;-75
2023/05/06 06:00:57;;;;;;;9.13;6.70;;;14.90;99.90;;;;;;5011094;28;20281;-74
2023/05/06 06:03:23;;;;;;;8.23;6.83;;;15.00;99.90;;;;;;5010800;28;20175;-74
2023/05/06 06:05:51;;;;;;;7.73;6.10;;;15.10;99.90;;;;;;5011587;28;20717;-76
2023/05/06 06:08:17;;;;;;;7.50;5.80;;;15.10;99.90;;;;;;5010741;28;20195;-75
2023/05/06 06:10:44;;;;;;;6.90;6.20;;;15.20;99.90;;;;;;5017837;28;20181;-74
2023/05/06 06:13:15;;;;;;;11.87;6.53;;;15.20;99.90;;;;;;5023648;28;20617;-75
2023/05/06 06:15:41;;;;;;;7.10;6.40;;;15.30;99.90;;;;;;5024665;28;20179;-74
2023/05/06 06:18:07;;;;;;;6.37;5.77;;;15.40;99.90;;;;;;5027180;28;20190;-74
2023/05/06 06:20:34;;;;;;;6.27;5.67;;;15.40;99.90;;;;;;5030219;28;20189;-74
2023/05/06 06:23:00;;;;;;;7.23;6.40;;;15.40;99.90;;;;;;5030024;28;20190;-74
2023/05/06 06:25:26;;;;;;;8.70;6.73;;;15.50;99.90;;;;;;5013675;28;20214;-74
2023/05/06 06:27:54;;;;;;;8.03;6.00;;;15.60;99.90;;;;;;5018258;28;20203;-74
2023/05/06 06:30:20;;;;;;;7.67;6.53;;;15.60;99.90;;;;;;5010501;28;20179;-74
2023/05/06 06:32:51;;;;;;;7.97;6.47;;;15.70;99.90;;;;;;5011249;28;20192;-75
2023/05/06 06:35:18;;;;;;;8.47;7.23;;;15.70;99.90;;;;;;5012776;28;20185;-74
2023/05/06 06:37:45;;;;;;;8.53;7.63;;;15.70;99.90;;;;;;5023511;28;20721;-74
2023/05/06 06:40:12;;;;;;;11.10;8.80;;;15.80;99.90;;;;;;5016044;28;20182;-74
2023/05/06 06:42:37;;;;;;;10.77;9.00;;;15.90;99.90;;;;;;5018560;28;20247;-74
2023/05/06 06:45:17;;;;;;;11.30;8.93;;;15.90;99.90;;;;;;5001823;28;20210;-74
2023/05/06 06:47:43;;;;;;;9.73;8.40;;;15.90;99.90;;;;;;5018616;28;20198;-74
2023/05/06 06:50:10;;;;;;;10.77;9.07;;;16.00;99.90;;;;;;5025982;28;20190;-74
2023/05/06 06:52:35;;;;;;;12.80;9.40;;;16.00;99.90;;;;;;5021446;28;20193;-75
2023/05/06 06:55:02;;;;;;;10.10;8.80;;;16.10;99.90;;;;;;5029756;28;20662;-73
2023/05/06 06:57:28;;;;;;;11.80;9.63;;;16.10;99.90;;;;;;5012372;28;20203;-74
2023/05/06 06:59:54;;;;;;;12.23;9.00;;;16.10;99.90;;;;;;5022460;28;20185;-77
2023/05/06 07:02:20;;;;;;;9.63;8.57;;;16.20;99.90;;;;;;5025519;28;20191;-75
2023/05/06 07:04:46;;;;;;;11.03;7.97;;;16.20;99.90;;;;;;5041619;28;20212;-76
2023/05/06 07:07:12;;;;;;;11.13;7.93;;;16.30;99.90;;;;;;5018378;28;20726;-76
2023/05/06 07:09:38;;;;;;;8.63;7.53;;;16.30;99.90;;;;;;5026614;28;20674;-75
2023/05/06 07:12:05;;;;;;;11.97;8.20;;;16.40;99.90;;;;;;5017060;28;20181;-76
2023/05/06 07:14:31;;;;;;;9.93;8.73;;;16.50;99.90;;;;;;5014796;28;20266;-73
2023/05/06 07:16:59;;;;;;;10.97;9.27;;;16.50;99.90;;;;;;5027388;28;20232;-75
2023/05/06 07:19:25;;;;;;;9.17;8.27;;;16.60;99.90;;;;;;5022950;28;20689;-74
2023/05/06 07:21:51;;;;;;;11.20;9.40;;;16.70;99.90;;;;;;5019704;28;20322;-75
2023/05/06 07:24:17;;;;;;;8.77;7.93;;;16.80;99.90;;;;;;5044436;28;20831;-74
2023/05/06 07:26:43;;;;;;;8.33;7.50;;;16.90;99.90;;;;;;5035835;28;20178;-75
2023/05/06 07:29:09;;;;;;;8.53;7.63;;;17.00;99.90;;;;;;5015027;28;20185;-75
2023/05/06 07:31:35;;;;;;;8.13;7.07;;;17.00;99.90;;;;;;5033303;28;20217;-74
2023/05/06 07:34:00;;;;;;;7.23;6.53;;;17.10;99.90;;;;;;5031493;28;20179;-75
2023/05/06 07:36:27;;;;;;;8.60;6.67;;;17.20;99.90;;;;;;5024126;28;20205;-75
2023/05/06 07:38:53;;;;;;;8.07;7.27;;;17.30;99.90;;;;;;5026671;28;20266;-75
2023/05/06 07:41:19;;;;;;;10.60;7.77;;;17.40;99.90;;;;;;5030742;28;20626;-77
2023/05/06 07:43:44;;;;;;;11.50;8.33;;;17.40;99.90;;;;;;5032682;28;20238;-76
2023/05/06 07:46:10;;;;;;;8.10;7.30;;;17.50;99.90;;;;;;5020217;28;20203;-75
2023/05/06 07:48:36;;;;;;;8.07;7.17;;;17.50;99.90;;;;;;5031736;28;20202;-78
2023/05/06 07:51:02;;;;;;;7.77;6.83;;;17.50;99.90;;;;;;5034765;28;20924;-77
2023/05/06 07:53:28;;;;;;;10.53;6.70;;;17.50;99.90;;;;;;5032931;28;20205;-77
2023/05/06 07:56:00;;;;;;;9.67;7.10;;;17.50;99.90;;;;;;5020529;28;20230;-78
2023/05/06 07:58:29;;;;;;;8.03;7.27;;;17.60;99.90;;;;;;5030284;28;20236;-77
2023/05/06 08:00:55;;;;;;;7.50;6.63;;;17.60;99.90;;;;;;5028659;28;20712;-78
2023/05/06 08:03:21;;;;;;;8.53;7.57;;;17.60;99.90;;;;;;5034763;28;20206;-78
2023/05/06 08:05:48;;;;;;;7.97;7.17;;;17.60;99.90;;;;;;5020216;28;20713;-79
2023/05/06 08:08:14;;;;;;;6.73;6.13;;;17.50;99.90;;;;;;5013986;28;20206;-79
2023/05/06 08:10:40;;;;;;;7.93;7.13;;;17.60;99.90;;;;;;5016404;28;20217;-84
2023/05/06 08:13:05;;;;;;;8.20;7.10;;;17.60;99.90;;;;;;4996689;28;20261;-77
2023/05/06 08:15:31;;;;;;;8.47;7.53;;;17.70;99.90;;;;;;5016833;28;20655;-80
2023/05/06 08:17:57;;;;;;;8.27;7.47;;;17.80;99.90;;;;;;5021476;28;20764;-78
2023/05/06 08:20:23;;;;;;;8.60;7.40;;;17.90;99.90;;;;;;5020287;28;20183;-79
2023/05/06 08:22:48;;;;;;;8.87;7.40;;;17.90;99.90;;;;;;5039740;28;20201;-78
2023/05/06 08:25:15;;;;;;;8.00;7.30;;;17.90;99.90;;;;;;5027049;28;20224;-78
2023/05/06 08:27:41;;;;;;;7.50;6.80;;;17.90;99.90;;;;;;5033698;28;20217;-78
2023/05/06 08:30:07;;;;;;;8.93;7.20;;;17.90;99.90;;;;;;5034266;28;20258;-78
2023/05/06 08:32:33;;;;;;;7.60;6.80;;;18.00;99.90;;;;;;5033795;28;20172;-78
2023/05/06 08:34:59;;;;;;;7.93;7.13;;;18.10;99.90;;;;;;5045696;28;20192;-78
2023/05/06 08:37:25;;;;;;;8.43;6.77;;;18.10;99.90;;;;;;5033915;28;20257;-79
2023/05/06 08:39:51;;;;;;;8.73;7.10;;;18.20;99.90;;;;;;5018644;28;20179;-80
2023/05/06 08:42:16;;;;;;;8.63;7.13;;;18.30;99.90;;;;;;4998061;28;20176;-79
2023/05/06 08:44:43;;;;;;;8.33;6.50;;;18.50;99.90;;;;;;5013873;28;20619;-78
2023/05/06 08:47:09;;;;;;;8.50;6.80;;;18.50;99.90;;;;;;5022435;28;20286;-75
2023/05/06 08:49:35;;;;;;;7.50;6.53;;;18.60;99.90;;;;;;5030273;28;20215;-77
2023/05/06 08:52:04;;;;;;;7.40;6.70;;;18.70;99.90;;;;;;5037211;28;20729;-80
2023/05/06 08:54:33;;;;;;;7.13;6.33;;;18.80;99.90;;;;;;5008500;28;20202;-77
2023/05/06 08:57:02;;;;;;;6.50;5.87;;;18.80;99.90;;;;;;5033190;28;20194;-77
2023/05/06 08:59:32;;;;;;;6.33;5.20;;;18.90;99.90;;;;;;5033015;28;20644;-78
2023/05/06 09:02:05;;;;;;;5.60;5.10;;;19.10;99.90;;;;;;5014143;28;20171;-78
2023/05/06 09:04:31;;;;;;;5.30;4.80;;;19.20;99.90;;;;;;5014485;28;20187;-78
2023/05/06 09:06:57;;;;;;;4.37;3.90;;;19.30;99.90;;;;;;5034506;28;20202;-78
2023/05/06 09:09:24;;;;;;;6.30;3.40;;;19.40;99.90;;;;;;5022284;28;20533;-78
2023/05/06 09:11:52;;;;;;;3.40;2.40;;;19.40;94.90;;;;;;5022307;28;20171;-77
2023/05/06 09:14:20;;;;;;;4.37;2.90;;;19.40;88.00;;;;;;5032788;28;20225;-77
2023/05/06 09:16:51;;;;;;;4.60;4.10;;;19.50;84.40;;;;;;5025506;28;20322;-76
2023/05/06 09:19:19;;;;;;;4.77;3.60;;;19.50;88.10;;;;;;5027292;28;20179;-79
2023/05/06 09:21:47;;;;;;;4.23;3.07;;;19.60;90.80;;;;;;5034763;28;20602;-80
2023/05/06 09:24:14;;;;;;;2.90;2.50;;;19.80;89.30;;;;;;5021359;28;20187;-80
2023/05/06 09:26:41;;;;;;;4.27;1.93;;;19.90;80.60;;;;;;5004742;28;20221;-79
2023/05/06 09:29:07;;;;;;;2.57;2.20;;;19.90;74.90;;;;;;5028178;28;20175;-75
2023/05/06 09:31:48;;;;;;;6.20;3.47;;;19.90;73.60;;;;;;5032484;28;20772;-78
2023/05/06 09:34:14;;;;;;;4.37;3.63;;;20.00;76.30;;;;;;5031532;28;20174;-77
2023/05/06 09:36:40;;;;;;;4.57;3.67;;;20.10;78.10;;;;;;5032876;28;20183;-78
2023/05/06 09:39:06;;;;;;;3.93;3.07;;;20.20;78.80;;;;;;5014535;28;20712;-76
2023/05/06 09:41:32;;;;;;;3.53;2.87;;;20.30;76.70;;;;;;5029124;28;20183;-77
2023/05/06 09:43:58;;;;;;;3.70;2.70;;;20.30;74.30;;;;;;5016371;28;20191;-77
2023/05/06 09:46:26;;;;;;;3.63;3.30;;;20.40;72.50;;;;;;5014995;28;20202;-76
2023/05/06 09:48:53;;;;;;;4.80;3.20;;;20.50;71.30;;;;;;5018319;28;20194;-75
2023/05/06 09:51:19;;;;;;;3.83;2.87;;;20.60;71.00;;;;;;5023314;28;20232;-75
2023/05/06 09:53:46;;;;;;;3.50;2.30;;;20.60;70.30;;;;;;5026429;28;20262;-76
2023/05/06 09:56:13;;;;;;;2.70;2.30;;;20.70;69.20;;;;;;5013837;28;20202;-74
2023/05/06 09:58:39;;;;;;;3.10;2.80;;;20.80;66.80;;;;;;5031557;28;20336;-74
2023/05/06 10:01:06;;;;;;;5.47;4.43;;;21.00;68.70;;;;;;5024373;28;20671;-75
2023/05/06 10:03:33;;;;;;;4.63;4.13;;;21.10;69.20;;;;;;5028133;28;20264;-74
2023/05/06 10:06:01;;;;;;;6.73;4.30;;;21.10;68.90;;;;;;5026133;28;20198;-74
2023/05/06 10:08:27;;;;;;;5.37;4.70;;;21.20;69.30;;;;;;5029402;28;20221;-74
2023/05/06 10:10:54;;;;;;;6.80;4.50;;;21.20;69.50;;;;;;5021697;28;20203;-75
2023/05/06 10:13:20;;;;;;;10.47;4.90;;;21.20;68.10;;;;;;5026869;28;20174;-75
2023/05/06 10:15:48;;;;;;;6.70;4.70;;;21.10;69.00;;;;;;5030193;28;20214;-75
2023/05/06 10:18:18;;;;;;;5.20;4.60;;;21.00;67.90;;;;;;5030196;28;20218;-75
2023/05/06 10:20:45;;;;;;;4.27;3.87;;;20.90;68.20;;;;;;5030451;28;20190;-75
2023/05/06 10:23:36;;;;;;;5.13;4.03;;;21.00;69.00;;;;;;5029824;28;20206;-75
2023/05/06 10:26:10;;;;;;;5.67;4.57;;;21.10;67.80;;;;;;5012321;28;20210;-75
2023/05/06 10:28:39;;;;;;;4.57;4.17;;;21.00;66.90;;;;;;5011529;28;20195;-74
2023/05/06 10:31:11;;;;;;;5.30;4.80;;;21.00;66.90;;;;;;5014989;28;20178;-75
2023/05/06 10:33:37;;;;;;;8.53;4.30;;;21.00;68.70;;;;;;5021578;28;20194;-74
2023/05/06 10:36:21;;;;;;;4.93;4.20;;;21.20;68.20;;;;;;5011612;28;20190;-74
2023/05/06 10:38:59;;;;;;;5.17;4.10;;;21.40;66.20;;;;;;5030700;28;20194;-75
2023/05/06 10:41:29;;;;;;;4.37;3.57;;;21.50;65.30;;;;;;5020940;28;20190;-75
2023/05/06 10:43:56;;;;;;;4.87;3.80;;;21.70;65.60;;;;;;5030472;28;20217;-75
2023/05/06 10:46:31;;;;;;;4.40;4.00;;;21.90;64.40;;;;;;5017930;28;20230;-76
2023/05/06 10:49:12;;;;;;;4.67;3.90;;;22.10;64.30;;;;;;5010171;28;20240;-77
2023/05/06 10:51:47;;;;;;;4.57;4.07;;;22.40;62.80;;;;;;5025471;28;20190;-74
2023/05/06 10:54:19;;;;;;;4.67;3.90;;;22.50;60.70;;;;;;5023053;28;20233;-75
2023/05/06 10:56:48;;;;;;;4.97;3.80;;;22.50;60.90;;;;;;5023198;28;20218;-74
2023/05/06 10:59:15;;;;;;;4.50;3.37;;;22.70;61.20;;;;;;5035579;28;20182;-74
2023/05/06 11:01:56;;;;;;;4.57;3.83;;;22.70;60.50;;;;;;5034971;28;20228;-76
2023/05/06 11:04:21;;;;;;;4.10;3.70;;;22.70;59.80;;;;;;5034948;28;20174;-75
2023/05/06 11:06:49;;;;;;;3.47;3.17;;;22.80;60.20;;;;;;5035294;28;20221;-75
2023/05/06 11:09:23;;;;;;;3.73;3.43;;;22.90;59.70;;;;;;5035225;28;20170;-75
2023/05/06 11:11:56;;;;;;;5.07;3.53;;;23.00;59.80;;;;;;5035346;28;20174;-74
2023/05/06 11:14:26;;;;;;;6.67;3.43;;;23.20;58.30;;;;;;5033533;28;20642;-74
2023/05/06 11:16:53;;;;;;;5.70;3.00;;;23.20;57.50;;;;;;5034724;28;20226;-74
2023/05/06 11:19:22;;;;;;;3.83;2.93;;;23.30;57.50;;;;;;5031142;28;20544;-74
2023/05/06 11:21:48;;;;;;;4.57;3.37;;;23.50;56.70;;;;;;5035025;28;20308;-76
2023/05/06 11:24:22;;;;;;;5.80;3.60;;;23.50;57.10;;;;;;5019125;28;20198;-75
2023/05/06 11:26:49;;;;;;;6.17;3.73;;;23.70;56.80;;;;;;5014222;28;20262;-75
2023/05/06 11:29:16;;;;;;;4.20;3.37;;;23.80;56.40;;;;;;5017347;28;20176;-73
2023/05/06 11:31:43;;;;;;;5.17;3.57;;;23.90;56.50;;;;;;5015523;28;20186;-73
2023/05/06 11:34:19;;;;;;;4.10;3.47;;;24.10;55.30;;;;;;5016605;28;20185;-73
2023/05/06 11:36:54;;;;;;;4.13;3.10;;;24.40;55.10;;;;;;5035146;28;20182;-73
2023/05/06 11:39:20;;;;;;;3.67;3.03;;;24.80;53.80;;;;;;5034979;28;20163;-73
2023/05/06 11:41:45;;;;;;;4.03;3.27;;;25.10;54.90;;;;;;5025406;28;20189;-73
2023/05/06 11:44:23;;;;;;;3.03;2.67;;;25.10;54.00;;;;;;5021852;28;20185;-77
2023/05/06 11:46:49;;;;;;;3.93;3.10;;;25.00;54.30;;;;;;5032757;28;20217;-77
2023/05/06 11:49:16;;;;;;;3.57;3.27;;;24.90;54.20;;;;;;5035187;28;20177;-76
2023/05/06 11:51:41;;;;;;;3.37;3.00;;;24.70;54.70;;;;;;5034176;28;20172;-78
2023/05/06 11:54:09;;;;;;;4.37;3.73;;;24.50;54.50;;;;;;5014705;28;20264;-75
2023/05/06 11:57:04;;;;;;;3.83;2.93;;;24.30;54.80;;;;;;5028264;28;20197;-78
2023/05/06 11:59:38;;;;;;;3.83;3.17;;;24.10;54.50;;;;;;5030177;28;20222;-75
2023/05/06 12:02:06;;;;;;;4.13;3.30;;;24.60;54.10;;;;;;5033895;28;20191;-75
2023/05/06 12:04:40;;;;;;;4.77;2.87;;;25.50;53.20;;;;;;5016147;28;20177;-75
2023/05/06 12:07:08;;;;;;;3.77;3.00;;;26.30;52.00;;;;;;5034389;28;20689;-76
2023/05/06 12:09:35;;;;;;;3.67;2.70;;;26.90;51.30;;;;;;5017293;28;20270;-77
2023/05/06 12:12:03;;;;;;;3.60;2.33;;;27.20;50.40;;;;;;5016875;28;20302;-78
2023/05/06 12:14:29;;;;;;;3.33;2.70;;;27.40;50.00;;;;;;5018872;28;20178;-78
2023/05/06 12:16:55;;;;;;;4.60;2.60;;;27.70;50.00;;;;;;5028786;28;20202;-74
2023/05/06 12:19:21;;;;;;;2.90;2.60;;;28.10;49.30;;;;;;5028873;28;20189;-75
2023/05/06 12:21:47;;;;;;;4.30;2.90;;;28.20;47.40;;;;;;5013120;28;20187;-76
2023/05/06 12:24:13;;;;;;;2.70;2.50;;;28.20;48.00;;;;;;5016541;28;20186;-76
2023/05/06 12:26:47;;;;;;;5.13;2.37;;;28.30;47.90;;;;;;5014895;28;20205;-75
2023/05/06 12:29:16;;;;;;;3.03;2.40;;;;;;;;;;5014547;28;20187;-75
2023/05/06 12:31:43;;;;;;;3.93;2.10;;;;;;;;;;5035673;28;20857;-75
2023/05/06 12:34:09;;;;;;;4.17;2.10;;;;;;;;;;5053343;28;20173;-76
2023/05/06 12:36:39;;;;;;;2.63;1.90;;;;;;;;;;5050039;28;20185;-74
2023/05/06 12:39:06;;;;;;;2.13;1.87;;;;;;;;;;5020338;28;20183;-74
2023/05/06 12:41:37;;;;;;;1.90;1.80;;;;;;;;;;5028851;28;20237;-74
2023/05/06 12:44:04;;;;;;;1.90;1.70;;;;;;;;;;5013350;28;20191;-75
2023/05/06 12:46:30;;;;;;;2.87;1.67;;;;;;;;;;5030531;28;20222;-74
2023/05/06 12:48:56;;;;;;;2.03;1.47;;;;;;;;;;5015046;28;20185;-74
2023/05/06 12:51:23;;;;;;;2.33;1.63;;;;;;;;;;5026442;28;20178;-75
2023/05/06 12:53:49;;;;;;;2.70;1.43;;;;;;;;;;5017659;28;20177;-75